sensor_id;sensor_type;location;lat;lon;timestamp;P1;durP1;ratioP1;P2;durP2;ratioP2
21046;SDS011;10682;50.874;3.656;2023-05-07T00:02:00;13.95;;;5.55;;
21046;SDS011;10682;50.874;3.656;2023-05-07T00:04:28;16.10;;;5.55;;
21046;SDS011;10682;50.874;3.656;2023-05-07T00:06:55;14.95;;;5.65;;
21046;SDS011;10682;50.874;3.656;2023-05-07T00:09:22;16.42;;;5.80;;
21046;SDS011;10682;50.874;3.656;2023-05-07T00:11:49;15.43;;;6.20;;
21046;SDS011;10682;50.874;3.656;2023-05-07T00:14:16;16.88;;;6.35;;
21046;SDS011;10682;50.874;3.656;2023-05-07T00:16:43;8.00;;;5.05;;
21046;SDS011;10682;50.874;3.656;2023-05-07T00:19:10;15.88;;;6.20;;
21046;SDS011;10682;50.874;3.656;2023-05-07T00:21:37;13.80;;;6.30;;
21046;SDS011;10682;50.874;3.656;2023-05-07T00:24:04;10.75;;;6.15;;
21046;SDS011;10682;50.874;3.656;2023-05-07T00:26:31;15.13;;;6.55;;
21046;SDS011;10682;50.874;3.656;2023-05-07T00:28:58;10.35;;;5.65;;
21046;SDS011;10682;50.874;3.656;2023-05-07T00:31:25;9.60;;;5.03;;
21046;SDS011;10682;50.874;3.656;2023-05-07T00:33:52;14.32;;;6.40;;
21046;SDS011;10682;50.874;3.656;2023-05-07T00:36:19;17.23;;;6.75;;
21046;SDS011;10682;50.874;3.656;2023-05-07T00:38:46;21.08;;;6.72;;
21046;SDS011;10682;50.874;3.656;2023-05-07T00:41:13;14.48;;;5.95;;
21046;SDS011;10682;50.874;3.656;2023-05-07T00:43:41;15.98;;;6.35;;
21046;SDS011;10682;50.874;3.656;2023-05-07T00:46:08;16.33;;;6.70;;
21046;SDS011;10682;50.874;3.656;2023-05-07T00:48:36;17.48;;;6.10;;
21046;SDS011;10682;50.874;3.656;2023-05-07T00:51:03;15.07;;;5.78;;
21046;SDS011;10682;50.874;3.656;2023-05-07T00:53:30;13.00;;;5.47;;
21046;SDS011;10682;50.874;3.656;2023-05-07T00:55:57;13.60;;;5.43;;
21046;SDS011;10682;50.874;3.656;2023-05-07T00:58:25;11.73;;;5.35;;
21046;SDS011;10682;50.874;3.656;2023-05-07T01:00:52;11.00;;;5.47;;
21046;SDS011;10682;50.874;3.656;2023-05-07T01:03:19;10.43;;;5.30;;
21046;SDS011;10682;50.874;3.656;2023-05-07T01:05:47;13.93;;;5.75;;
21046;SDS011;10682;50.874;3.656;2023-05-07T01:08:16;13.68;;;5.82;;
21046;SDS011;10682;50.874;3.656;2023-05-07T01:10:44;14.43;;;5.97;;
21046;SDS011;10682;50.874;3.656;2023-05-07T01:13:12;17.13;;;6.20;;
21046;SDS011;10682;50.874;3.656;2023-05-07T01:15:40;13.45;;;5.90;;
21046;SDS011;10682;50.874;3.656;2023-05-07T01:18:07;13.20;;;5.07;;
21046;SDS011;10682;50.874;3.656;2023-05-07T01:20:35;10.85;;;5.20;;
21046;SDS011;10682;50.874;3.656;2023-05-07T01:23:02;7.88;;;4.70;;
21046;SDS011;10682;50.874;3.656;2023-05-07T01:25:30;12.48;;;5.35;;
21046;SDS011;10682;50.874;3.656;2023-05-07T01:27:57;13.93;;;5.10;;
21046;SDS011;10682;50.874;3.656;2023-05-07T01:30:28;13.50;;;5.40;;
21046;SDS011;10682;50.874;3.656;2023-05-07T01:32:58;14.45;;;6.38;;
21046;SDS011;10682;50.874;3.656;2023-05-07T01:35:32;16.10;;;6.05;;
21046;SDS011;10682;50.874;3.656;2023-05-07T01:38:10;14.43;;;6.10;;
21046;SDS011;10682;50.874;3.656;2023-05-07T01:40:38;16.42;;;6.05;;
21046;SDS011;10682;50.874;3.656;2023-05-07T01:43:05;13.38;;;6.45;;
21046;SDS011;10682;50.874;3.656;2023-05-07T01:45:34;9.73;;;5.72;;
21046;SDS011;10682;50.874;3.656;2023-05-07T01:48:01;10.43;;;5.63;;
21046;SDS011;10682;50.874;3.656;2023-05-07T01:50:30;11.65;;;5.57;;
21046;SDS011;10682;50.874;3.656;2023-05-07T01:52:58;13.02;;;5.75;;
21046;SDS011;10682;50.874;3.656;2023-05-07T01:55:25;12.00;;;6.05;;
21046;SDS011;10682;50.874;3.656;2023-05-07T01:57:52;9.15;;;5.70;;
21046;SDS011;10682;50.874;3.656;2023-05-07T02:00:19;10.55;;;5.45;;
21046;SDS011;10682;50.874;3.656;2023-05-07T02:02:46;9.90;;;6.05;;
21046;SDS011;10682;50.874;3.656;2023-05-07T02:05:13;11.77;;;5.72;;
21046;SDS011;10682;50.874;3.656;2023-05-07T02:07:40;14.15;;;5.97;;
21046;SDS011;10682;50.874;3.656;2023-05-07T02:10:07;12.35;;;5.47;;
21046;SDS011;10682;50.874;3.656;2023-05-07T02:12:35;10.88;;;5.43;;
21046;SDS011;10682;50.874;3.656;2023-05-07T02:15:02;12.25;;;6.20;;
21046;SDS011;10682;50.874;3.656;2023-05-07T02:17:30;13.95;;;6.55;;
21046;SDS011;10682;50.874;3.656;2023-05-07T02:19:59;16.58;;;6.75;;
21046;SDS011;10682;50.874;3.656;2023-05-07T02:22:26;18.40;;;6.50;;
21046;SDS011;10682;50.874;3.656;2023-05-07T02:24:53;16.17;;;7.05;;
21046;SDS011;10682;50.874;3.656;2023-05-07T02:27:20;13.80;;;6.45;;
21046;SDS011;10682;50.874;3.656;2023-05-07T02:29:47;10.68;;;5.90;;
21046;SDS011;10682;50.874;3.656;2023-05-07T02:32:14;11.40;;;5.65;;
21046;SDS011;10682;50.874;3.656;2023-05-07T02:34:41;10.90;;;5.97;;
21046;SDS011;10682;50.874;3.656;2023-05-07T02:37:08;12.13;;;6.07;;
21046;SDS011;10682;50.874;3.656;2023-05-07T02:39:35;10.88;;;5.95;;
21046;SDS011;10682;50.874;3.656;2023-05-07T02:42:03;13.93;;;6.43;;
21046;SDS011;10682;50.874;3.656;2023-05-07T02:44:30;12.05;;;6.68;;
21046;SDS011;10682;50.874;3.656;2023-05-07T02:46:57;15.90;;;6.80;;
21046;SDS011;10682;50.874;3.656;2023-05-07T02:49:24;14.23;;;6.05;;
21046;SDS011;10682;50.874;3.656;2023-05-07T02:51:51;14.73;;;6.60;;
21046;SDS011;10682;50.874;3.656;2023-05-07T02:54:18;11.07;;;6.10;;
21046;SDS011;10682;50.874;3.656;2023-05-07T02:56:45;14.00;;;6.82;;
21046;SDS011;10682;50.874;3.656;2023-05-07T02:59:12;10.95;;;6.35;;
21046;SDS011;10682;50.874;3.656;2023-05-07T03:01:39;16.83;;;7.28;;
21046;SDS011;10682;50.874;3.656;2023-05-07T03:04:08;12.25;;;6.13;;
21046;SDS011;10682;50.874;3.656;2023-05-07T03:06:35;10.25;;;5.82;;
21046;SDS011;10682;50.874;3.656;2023-05-07T03:09:02;12.38;;;6.15;;
21046;SDS011;10682;50.874;3.656;2023-05-07T03:11:29;16.65;;;7.75;;
21046;SDS011;10682;50.874;3.656;2023-05-07T03:13:56;13.70;;;7.50;;
21046;SDS011;10682;50.874;3.656;2023-05-07T03:16:23;13.77;;;6.53;;
21046;SDS011;10682;50.874;3.656;2023-05-07T03:18:50;11.77;;;6.18;;
21046;SDS011;10682;50.874;3.656;2023-05-07T03:21:17;16.58;;;7.43;;
21046;SDS011;10682;50.874;3.656;2023-05-07T03:23:44;20.05;;;7.20;;
21046;SDS011;10682;50.874;3.656;2023-05-07T03:26:11;12.63;;;6.68;;
21046;SDS011;10682;50.874;3.656;2023-05-07T03:28:38;13.02;;;6.18;;
21046;SDS011;10682;50.874;3.656;2023-05-07T03:31:05;14.75;;;6.60;;
21046;SDS011;10682;50.874;3.656;2023-05-07T03:33:33;13.67;;;7.40;;
21046;SDS011;10682;50.874;3.656;2023-05-07T03:36:01;15.23;;;7.63;;
21046;SDS011;10682;50.874;3.656;2023-05-07T03:38:28;13.38;;;6.82;;
21046;SDS011;10682;50.874;3.656;2023-05-07T03:40:55;13.15;;;7.13;;
21046;SDS011;10682;50.874;3.656;2023-05-07T03:43:22;12.50;;;6.55;;
21046;SDS011;10682;50.874;3.656;2023-05-07T03:45:49;13.75;;;6.90;;
21046;SDS011;10682;50.874;3.656;2023-05-07T03:48:16;11.93;;;5.60;;
21046;SDS011;10682;50.874;3.656;2023-05-07T03:50:43;9.65;;;5.50;;
21046;SDS011;10682;50.874;3.656;2023-05-07T03:53:10;12.02;;;7.20;;
21046;SDS011;10682;50.874;3.656;2023-05-07T03:55:37;15.32;;;6.20;;
21046;SDS011;10682;50.874;3.656;2023-05-07T03:58:05;12.90;;;5.70;;
21046;SDS011;10682;50.874;3.656;2023-05-07T04:00:31;12.93;;;6.57;;
21046;SDS011;10682;50.874;3.656;2023-05-07T04:03:03;15.60;;;7.18;;
21046;SDS011;10682;50.874;3.656;2023-05-07T04:05:31;12.23;;;6.75;;
21046;SDS011;10682;50.874;3.656;2023-05-07T04:07:58;14.45;;;6.45;;
21046;SDS011;10682;50.874;3.656;2023-05-07T04:10:26;12.38;;;6.18;;
21046;SDS011;10682;50.874;3.656;2023-05-07T04:12:54;14.00;;;6.55;;
21046;SDS011;10682;50.874;3.656;2023-05-07T04:15:21;18.48;;;6.97;;
21046;SDS011;10682;50.874;3.656;2023-05-07T04:17:49;12.43;;;7.00;;
21046;SDS011;10682;50.874;3.656;2023-05-07T04:20:16;15.13;;;6.78;;
21046;SDS011;10682;50.874;3.656;2023-05-07T04:22:43;15.35;;;6.70;;
21046;SDS011;10682;50.874;3.656;2023-05-07T04:25:10;14.25;;;6.85;;
21046;SDS011;10682;50.874;3.656;2023-05-07T04:27:38;16.10;;;7.07;;
21046;SDS011;10682;50.874;3.656;2023-05-07T04:30:05;17.33;;;7.25;;
21046;SDS011;10682;50.874;3.656;2023-05-07T04:32:33;14.30;;;7.78;;
21046;SDS011;10682;50.874;3.656;2023-05-07T04:35:00;12.68;;;6.82;;
21046;SDS011;10682;50.874;3.656;2023-05-07T04:37:27;14.20;;;8.02;;
21046;SDS011;10682;50.874;3.656;2023-05-07T04:39:54;16.60;;;7.60;;
21046;SDS011;10682;50.874;3.656;2023-05-07T04:42:21;23.38;;;8.20;;
21046;SDS011;10682;50.874;3.656;2023-05-07T04:44:48;16.35;;;7.60;;
21046;SDS011;10682;50.874;3.656;2023-05-07T04:47:19;20.67;;;7.80;;
21046;SDS011;10682;50.874;3.656;2023-05-07T04:49:46;20.70;;;6.75;;
21046;SDS011;10682;50.874;3.656;2023-05-07T04:52:13;21.20;;;7.80;;
21046;SDS011;10682;50.874;3.656;2023-05-07T04:54:41;20.00;;;7.80;;
21046;SDS011;10682;50.874;3.656;2023-05-07T04:57:08;21.23;;;7.32;;
21046;SDS011;10682;50.874;3.656;2023-05-07T04:59:35;20.13;;;7.80;;
21046;SDS011;10682;50.874;3.656;2023-05-07T05:02:02;17.98;;;7.60;;
21046;SDS011;10682;50.874;3.656;2023-05-07T05:04:30;22.70;;;7.65;;
21046;SDS011;10682;50.874;3.656;2023-05-07T05:06:57;18.73;;;7.93;;
21046;SDS011;10682;50.874;3.656;2023-05-07T05:09:24;17.88;;;7.72;;
21046;SDS011;10682;50.874;3.656;2023-05-07T05:11:51;23.17;;;7.80;;
21046;SDS011;10682;50.874;3.656;2023-05-07T05:14:18;19.25;;;8.15;;
21046;SDS011;10682;50.874;3.656;2023-05-07T05:16:45;20.00;;;8.32;;
21046;SDS011;10682;50.874;3.656;2023-05-07T05:19:12;16.02;;;7.40;;
21046;SDS011;10682;50.874;3.656;2023-05-07T05:21:39;23.90;;;8.02;;
21046;SDS011;10682;50.874;3.656;2023-05-07T05:24:06;18.38;;;7.30;;
21046;SDS011;10682;50.874;3.656;2023-05-07T05:26:33;15.05;;;7.57;;
21046;SDS011;10682;50.874;3.656;2023-05-07T05:29:01;20.00;;;8.18;;
21046;SDS011;10682;50.874;3.656;2023-05-07T05:31:28;19.95;;;8.52;;
21046;SDS011;10682;50.874;3.656;2023-05-07T05:33:55;19.38;;;7.93;;
21046;SDS011;10682;50.874;3.656;2023-05-07T05:36:22;19.42;;;8.55;;
21046;SDS011;10682;50.874;3.656;2023-05-07T05:38:49;16.90;;;8.13;;
21046;SDS011;10682;50.874;3.656;2023-05-07T05:41:16;22.40;;;7.53;;
21046;SDS011;10682;50.874;3.656;2023-05-07T05:43:43;14.75;;;7.00;;
21046;SDS011;10682;50.874;3.656;2023-05-07T05:46:10;19.98;;;7.22;;
21046;SDS011;10682;50.874;3.656;2023-05-07T05:48:38;16.13;;;7.70;;
21046;SDS011;10682;50.874;3.656;2023-05-07T05:51:05;20.88;;;7.90;;
21046;SDS011;10682;50.874;3.656;2023-05-07T05:53:32;19.73;;;7.55;;
21046;SDS011;10682;50.874;3.656;2023-05-07T05:55:59;16.77;;;7.15;;
21046;SDS011;10682;50.874;3.656;2023-05-07T05:58:26;18.58;;;7.35;;
21046;SDS011;10682;50.874;3.656;2023-05-07T06:00:53;16.23;;;6.82;;
21046;SDS011;10682;50.874;3.656;2023-05-07T06:03:20;16.95;;;6.88;;
21046;SDS011;10682;50.874;3.656;2023-05-07T06:05:47;15.05;;;6.57;;
21046;SDS011;10682;50.874;3.656;2023-05-07T06:08:14;15.40;;;6.55;;
21046;SDS011;10682;50.874;3.656;2023-05-07T06:10:41;14.63;;;6.72;;
21046;SDS011;10682;50.874;3.656;2023-05-07T06:13:08;12.27;;;6.15;;
21046;SDS011;10682;50.874;3.656;2023-05-07T06:15:36;12.63;;;6.07;;
21046;SDS011;10682;50.874;3.656;2023-05-07T06:18:03;11.70;;;6.43;;
21046;SDS011;10682;50.874;3.656;2023-05-07T06:20:30;13.95;;;6.13;;
21046;SDS011;10682;50.874;3.656;2023-05-07T06:22:57;14.88;;;6.50;;
21046;SDS011;10682;50.874;3.656;2023-05-07T06:25:24;17.63;;;6.88;;
21046;SDS011;10682;50.874;3.656;2023-05-07T06:27:51;17.20;;;6.35;;
21046;SDS011;10682;50.874;3.656;2023-05-07T06:30:18;17.33;;;6.38;;
21046;SDS011;10682;50.874;3.656;2023-05-07T06:32:45;15.63;;;6.03;;
21046;SDS011;10682;50.874;3.656;2023-05-07T06:35:12;15.07;;;5.95;;
21046;SDS011;10682;50.874;3.656;2023-05-07T06:37:39;9.70;;;5.60;;
21046;SDS011;10682;50.874;3.656;2023-05-07T06:40:08;14.20;;;5.43;;
21046;SDS011;10682;50.874;3.656;2023-05-07T06:42:37;21.05;;;5.95;;
21046;SDS011;10682;50.874;3.656;2023-05-07T06:45:04;14.55;;;6.15;;
21046;SDS011;10682;50.874;3.656;2023-05-07T06:47:31;12.27;;;5.32;;
21046;SDS011;10682;50.874;3.656;2023-05-07T06:49:58;10.32;;;5.13;;
21046;SDS011;10682;50.874;3.656;2023-05-07T06:52:25;9.18;;;4.70;;
21046;SDS011;10682;50.874;3.656;2023-05-07T06:54:52;10.35;;;4.85;;
21046;SDS011;10682;50.874;3.656;2023-05-07T06:57:19;13.13;;;4.60;;
21046;SDS011;10682;50.874;3.656;2023-05-07T06:59:46;9.30;;;4.50;;
21046;SDS011;10682;50.874;3.656;2023-05-07T07:02:13;14.93;;;4.97;;
21046;SDS011;10682;50.874;3.656;2023-05-07T07:04:43;15.60;;;4.70;;
21046;SDS011;10682;50.874;3.656;2023-05-07T07:07:11;14.68;;;5.18;;
21046;SDS011;10682;50.874;3.656;2023-05-07T07:09:38;15.73;;;5.50;;
21046;SDS011;10682;50.874;3.656;2023-05-07T07:12:05;14.80;;;5.70;;
21046;SDS011;10682;50.874;3.656;2023-05-07T07:14:32;10.82;;;5.20;;
21046;SDS011;10682;50.874;3.656;2023-05-07T07:17:00;9.48;;;4.30;;
21046;SDS011;10682;50.874;3.656;2023-05-07T07:19:27;8.65;;;4.03;;
21046;SDS011;10682;50.874;3.656;2023-05-07T07:21:54;12.50;;;5.20;;
21046;SDS011;10682;50.874;3.656;2023-05-07T07:24:21;10.63;;;4.80;;
21046;SDS011;10682;50.874;3.656;2023-05-07T07:26:47;13.30;;;5.80;;
21046;SDS011;10682;50.874;3.656;2023-05-07T07:29:14;8.95;;;4.53;;
21046;SDS011;10682;50.874;3.656;2023-05-07T07:31:42;11.75;;;5.00;;
21046;SDS011;10682;50.874;3.656;2023-05-07T07:34:09;15.15;;;5.50;;
21046;SDS011;10682;50.874;3.656;2023-05-07T07:36:35;11.27;;;4.60;;
21046;SDS011;10682;50.874;3.656;2023-05-07T07:39:12;12.45;;;4.57;;
21046;SDS011;10682;50.874;3.656;2023-05-07T07:41:39;7.72;;;4.40;;
21046;SDS011;10682;50.874;3.656;2023-05-07T07:44:06;8.73;;;4.47;;
21046;SDS011;10682;50.874;3.656;2023-05-07T07:46:34;11.15;;;4.97;;
21046;SDS011;10682;50.874;3.656;2023-05-07T07:49:02;12.43;;;5.13;;
21046;SDS011;10682;50.874;3.656;2023-05-07T07:51:29;11.38;;;5.43;;
21046;SDS011;10682;50.874;3.656;2023-05-07T07:53:56;14.40;;;6.18;;
21046;SDS011;10682;50.874;3.656;2023-05-07T07:56:23;14.93;;;5.60;;
21046;SDS011;10682;50.874;3.656;2023-05-07T07:58:51;15.70;;;5.88;;
21046;SDS011;10682;50.874;3.656;2023-05-07T08:01:18;12.50;;;6.20;;
21046;SDS011;10682;50.874;3.656;2023-05-07T08:03:45;14.75;;;6.25;;
21046;SDS011;10682;50.874;3.656;2023-05-07T08:06:12;14.10;;;5.63;;
21046;SDS011;10682;50.874;3.656;2023-05-07T08:08:40;12.65;;;5.47;;
21046;SDS011;10682;50.874;3.656;2023-05-07T08:11:07;13.02;;;5.82;;
21046;SDS011;10682;50.874;3.656;2023-05-07T08:13:34;11.05;;;5.72;;
21046;SDS011;10682;50.874;3.656;2023-05-07T08:16:02;12.13;;;5.40;;
21046;SDS011;10682;50.874;3.656;2023-05-07T08:18:30;13.50;;;5.47;;
21046;SDS011;10682;50.874;3.656;2023-05-07T08:20:57;10.60;;;5.63;;
21046;SDS011;10682;50.874;3.656;2023-05-07T08:23:24;11.18;;;5.38;;
21046;SDS011;10682;50.874;3.656;2023-05-07T08:25:53;10.95;;;5.10;;
21046;SDS011;10682;50.874;3.656;2023-05-07T08:28:20;12.27;;;6.00;;
21046;SDS011;10682;50.874;3.656;2023-05-07T08:30:47;12.60;;;5.95;;
21046;SDS011;10682;50.874;3.656;2023-05-07T08:33:14;13.35;;;6.32;;
21046;SDS011;10682;50.874;3.656;2023-05-07T08:35:41;10.80;;;5.65;;
21046;SDS011;10682;50.874;3.656;2023-05-07T08:38:08;12.52;;;5.63;;
21046;SDS011;10682;50.874;3.656;2023-05-07T08:40:38;13.07;;;6.13;;
21046;SDS011;10682;50.874;3.656;2023-05-07T08:43:07;12.60;;;6.35;;
21046;SDS011;10682;50.874;3.656;2023-05-07T08:45:34;8.23;;;5.10;;
21046;SDS011;10682;50.874;3.656;2023-05-07T08:48:05;11.13;;;5.53;;
21046;SDS011;10682;50.874;3.656;2023-05-07T08:50:39;9.93;;;5.47;;
21046;SDS011;10682;50.874;3.656;2023-05-07T08:53:06;14.30;;;5.85;;
21046;SDS011;10682;50.874;3.656;2023-05-07T08:55:33;13.30;;;5.53;;
21046;SDS011;10682;50.874;3.656;2023-05-07T08:58:00;20.45;;;8.73;;
21046;SDS011;10682;50.874;3.656;2023-05-07T09:00:27;13.90;;;5.68;;
21046;SDS011;10682;50.874;3.656;2023-05-07T09:02:54;15.80;;;5.07;;
21046;SDS011;10682;50.874;3.656;2023-05-07T09:05:22;12.32;;;5.43;;
21046;SDS011;10682;50.874;3.656;2023-05-07T09:07:49;12.05;;;5.30;;
21046;SDS011;10682;50.874;3.656;2023-05-07T09:10:20;16.45;;;5.25;;
21046;SDS011;10682;50.874;3.656;2023-05-07T09:12:47;14.73;;;5.35;;
21046;SDS011;10682;50.874;3.656;2023-05-07T09:15:15;11.30;;;4.90;;
21046;SDS011;10682;50.874;3.656;2023-05-07T09:17:43;12.40;;;5.30;;
21046;SDS011;10682;50.874;3.656;2023-05-07T09:20:10;10.88;;;4.70;;
21046;SDS011;10682;50.874;3.656;2023-05-07T09:22:37;8.77;;;4.28;;
21046;SDS011;10682;50.874;3.656;2023-05-07T09:25:05;11.65;;;5.07;;
21046;SDS011;10682;50.874;3.656;2023-05-07T09:27:34;12.52;;;5.78;;
21046;SDS011;10682;50.874;3.656;2023-05-07T09:30:05;11.27;;;6.03;;
21046;SDS011;10682;50.874;3.656;2023-05-07T09:32:36;11.25;;;5.97;;
21046;SDS011;10682;50.874;3.656;2023-05-07T09:35:08;12.35;;;6.22;;
21046;SDS011;10682;50.874;3.656;2023-05-07T09:37:43;13.00;;;6.50;;
21046;SDS011;10682;50.874;3.656;2023-05-07T09:40:20;16.00;;;7.10;;
21046;SDS011;10682;50.874;3.656;2023-05-07T09:42:49;10.43;;;5.05;;
21046;SDS011;10682;50.874;3.656;2023-05-07T09:45:27;6.85;;;4.45;;
21046;SDS011;10682;50.874;3.656;2023-05-07T09:47:58;9.02;;;4.28;;
21046;SDS011;10682;50.874;3.656;2023-05-07T09:50:29;14.05;;;4.88;;
21046;SDS011;10682;50.874;3.656;2023-05-07T09:53:01;10.40;;;4.60;;
21046;SDS011;10682;50.874;3.656;2023-05-07T09:55:34;9.48;;;4.30;;
21046;SDS011;10682;50.874;3.656;2023-05-07T09:58:02;6.30;;;4.35;;
21046;SDS011;10682;50.874;3.656;2023-05-07T10:00:32;8.10;;;4.28;;
21046;SDS011;10682;50.874;3.656;2023-05-07T10:03:05;7.82;;;4.32;;
21046;SDS011;10682;50.874;3.656;2023-05-07T10:05:35;9.70;;;4.05;;
21046;SDS011;10682;50.874;3.656;2023-05-07T10:08:04;7.47;;;3.88;;
21046;SDS011;10682;50.874;3.656;2023-05-07T10:10:33;4.90;;;3.67;;
21046;SDS011;10682;50.874;3.656;2023-05-07T10:13:04;7.68;;;3.80;;
21046;SDS011;10682;50.874;3.656;2023-05-07T10:15:38;8.65;;;4.03;;
21046;SDS011;10682;50.874;3.656;2023-05-07T10:18:10;6.95;;;4.18;;
21046;SDS011;10682;50.874;3.656;2023-05-07T10:20:40;7.90;;;4.50;;
21046;SDS011;10682;50.874;3.656;2023-05-07T10:23:13;8.82;;;4.60;;
21046;SDS011;10682;50.874;3.656;2023-05-07T10:25:47;9.55;;;4.13;;
21046;SDS011;10682;50.874;3.656;2023-05-07T10:28:19;9.13;;;4.35;;
21046;SDS011;10682;50.874;3.656;2023-05-07T10:33:39;8.15;;;4.43;;
21046;SDS011;10682;50.874;3.656;2023-05-07T10:36:07;9.23;;;4.90;;
21046;SDS011;10682;50.874;3.656;2023-05-07T10:38:38;9.50;;;4.60;;
21046;SDS011;10682;50.874;3.656;2023-05-07T10:41:08;7.15;;;4.65;;
21046;SDS011;10682;50.874;3.656;2023-05-07T10:43:41;11.40;;;5.72;;
21046;SDS011;10682;50.874;3.656;2023-05-07T10:46:18;8.27;;;5.60;;
21046;SDS011;10682;50.874;3.656;2023-05-07T10:51:31;9.65;;;6.10;;
21046;SDS011;10682;50.874;3.656;2023-05-07T10:56:43;11.95;;;6.97;;
21046;SDS011;10682;50.874;3.656;2023-05-07T11:02:09;11.27;;;6.07;;
21046;SDS011;10682;50.874;3.656;2023-05-07T11:04:43;10.68;;;6.10;;
21046;SDS011;10682;50.874;3.656;2023-05-07T11:07:33;8.00;;;5.57;;
21046;SDS011;10682;50.874;3.656;2023-05-07T11:10:02;9.48;;;6.50;;
21046;SDS011;10682;50.874;3.656;2023-05-07T11:15:06;11.85;;;5.55;;
21046;SDS011;10682;50.874;3.656;2023-05-07T11:18:00;7.78;;;4.80;;
21046;SDS011;10682;50.874;3.656;2023-05-07T11:26:07;7.72;;;4.78;;
21046;SDS011;10682;50.874;3.656;2023-05-07T11:28:38;9.38;;;5.82;;
21046;SDS011;10682;50.874;3.656;2023-05-07T11:31:07;10.63;;;5.57;;
21046;SDS011;10682;50.874;3.656;2023-05-07T11:33:38;11.10;;;5.70;;
21046;SDS011;10682;50.874;3.656;2023-05-07T11:36:05;8.05;;;6.07;;
21046;SDS011;10682;50.874;3.656;2023-05-07T11:38:35;11.02;;;6.30;;
21046;SDS011;10682;50.874;3.656;2023-05-07T11:41:03;12.73;;;6.15;;
21046;SDS011;10682;50.874;3.656;2023-05-07T11:43:31;8.65;;;5.60;;
21046;SDS011;10682;50.874;3.656;2023-05-07T11:46:09;10.10;;;5.45;;
21046;SDS011;10682;50.874;3.656;2023-05-07T11:48:38;11.27;;;6.22;;
21046;SDS011;10682;50.874;3.656;2023-05-07T11:51:06;13.27;;;8.82;;
21046;SDS011;10682;50.874;3.656;2023-05-07T11:53:39;12.98;;;8.65;;
21046;SDS011;10682;50.874;3.656;2023-05-07T11:56:09;14.90;;;9.48;;
21046;SDS011;10682;50.874;3.656;2023-05-07T11:58:41;15.95;;;7.35;;
21046;SDS011;10682;50.874;3.656;2023-05-07T12:01:09;12.75;;;6.93;;
21046;SDS011;10682;50.874;3.656;2023-05-07T12:03:39;11.40;;;7.55;;
21046;SDS011;10682;50.874;3.656;2023-05-07T12:06:17;14.55;;;6.72;;
21046;SDS011;10682;50.874;3.656;2023-05-07T12:08:45;19.33;;;8.60;;
21046;SDS011;10682;50.874;3.656;2023-05-07T12:11:16;17.35;;;8.70;;
21046;SDS011;10682;50.874;3.656;2023-05-07T12:13:50;23.27;;;9.07;;
21046;SDS011;10682;50.874;3.656;2023-05-07T12:16:17;16.80;;;7.60;;
21046;SDS011;10682;50.874;3.656;2023-05-07T12:18:45;17.75;;;8.60;;
21046;SDS011;10682;50.874;3.656;2023-05-07T12:21:13;16.50;;;7.93;;
21046;SDS011;10682;50.874;3.656;2023-05-07T12:23:41;11.73;;;7.15;;
21046;SDS011;10682;50.874;3.656;2023-05-07T12:26:08;11.27;;;7.25;;
21046;SDS011;10682;50.874;3.656;2023-05-07T12:28:38;12.77;;;7.05;;
21046;SDS011;10682;50.874;3.656;2023-05-07T12:31:06;11.70;;;6.22;;
21046;SDS011;10682;50.874;3.656;2023-05-07T12:33:34;10.65;;;6.18;;
21046;SDS011;10682;50.874;3.656;2023-05-07T12:36:06;15.05;;;6.53;;
21046;SDS011;10682;50.874;3.656;2023-05-07T12:38:38;9.77;;;5.35;;
21046;SDS011;10682;50.874;3.656;2023-05-07T12:41:07;10.35;;;5.30;;
21046;SDS011;10682;50.874;3.656;2023-05-07T12:43:36;11.15;;;4.70;;
21046;SDS011;10682;50.874;3.656;2023-05-07T12:46:05;10.93;;;4.40;;
21046;SDS011;10682;50.874;3.656;2023-05-07T12:48:35;5.75;;;3.92;;
21046;SDS011;10682;50.874;3.656;2023-05-07T12:51:04;6.53;;;3.40;;
21046;SDS011;10682;50.874;3.656;2023-05-07T12:53:34;8.52;;;4.38;;
21046;SDS011;10682;50.874;3.656;2023-05-07T12:56:08;7.25;;;3.83;;
21046;SDS011;10682;50.874;3.656;2023-05-07T12:58:36;7.38;;;4.78;;
21046;SDS011;10682;50.874;3.656;2023-05-07T13:01:06;11.75;;;5.78;;
21046;SDS011;10682;50.874;3.656;2023-05-07T13:03:37;9.73;;;4.78;;
21046;SDS011;10682;50.874;3.656;2023-05-07T13:06:08;9.13;;;5.03;;
21046;SDS011;10682;50.874;3.656;2023-05-07T13:08:40;8.35;;;5.47;;
21046;SDS011;10682;50.874;3.656;2023-05-07T13:11:10;11.02;;;5.72;;
21046;SDS011;10682;50.874;3.656;2023-05-07T13:13:39;10.88;;;5.97;;
21046;SDS011;10682;50.874;3.656;2023-05-07T13:16:10;9.57;;;5.72;;
21046;SDS011;10682;50.874;3.656;2023-05-07T13:18:38;8.43;;;5.78;;
21046;SDS011;10682;50.874;3.656;2023-05-07T13:21:07;9.65;;;5.45;;
21046;SDS011;10682;50.874;3.656;2023-05-07T13:23:34;9.23;;;4.63;;
21046;SDS011;10682;50.874;3.656;2023-05-07T13:26:01;9.63;;;5.03;;
21046;SDS011;10682;50.874;3.656;2023-05-07T13:28:33;9.98;;;6.07;;
21046;SDS011;10682;50.874;3.656;2023-05-07T13:31:01;10.77;;;5.50;;
21046;SDS011;10682;50.874;3.656;2023-05-07T13:33:28;10.55;;;5.68;;
21046;SDS011;10682;50.874;3.656;2023-05-07T13:35:56;9.82;;;6.30;;
21046;SDS011;10682;50.874;3.656;2023-05-07T13:38:24;11.85;;;6.47;;
21046;SDS011;10682;50.874;3.656;2023-05-07T13:40:51;15.23;;;7.97;;
21046;SDS011;10682;50.874;3.656;2023-05-07T13:43:18;15.85;;;9.35;;
21046;SDS011;10682;50.874;3.656;2023-05-07T13:45:46;16.17;;;10.07;;
21046;SDS011;10682;50.874;3.656;2023-05-07T13:48:13;11.60;;;8.02;;
21046;SDS011;10682;50.874;3.656;2023-05-07T13:50:40;11.60;;;7.53;;
21046;SDS011;10682;50.874;3.656;2023-05-07T13:53:07;14.50;;;7.90;;
21046;SDS011;10682;50.874;3.656;2023-05-07T13:55:34;12.80;;;7.72;;
21046;SDS011;10682;50.874;3.656;2023-05-07T13:58:02;12.07;;;7.97;;
21046;SDS011;10682;50.874;3.656;2023-05-07T14:00:32;11.52;;;7.25;;
21046;SDS011;10682;50.874;3.656;2023-05-07T14:02:59;12.27;;;6.85;;
21046;SDS011;10682;50.874;3.656;2023-05-07T14:05:32;10.98;;;6.30;;
21046;SDS011;10682;50.874;3.656;2023-05-07T14:08:02;10.95;;;6.50;;
21046;SDS011;10682;50.874;3.656;2023-05-07T14:10:32;13.07;;;6.90;;
21046;SDS011;10682;50.874;3.656;2023-05-07T14:13:00;9.45;;;5.57;;
21046;SDS011;10682;50.874;3.656;2023-05-07T14:15:28;9.98;;;4.80;;
21046;SDS011;10682;50.874;3.656;2023-05-07T14:17:55;11.40;;;4.85;;
21046;SDS011;10682;50.874;3.656;2023-05-07T14:20:24;7.40;;;4.53;;
21046;SDS011;10682;50.874;3.656;2023-05-07T14:22:51;8.88;;;4.95;;
21046;SDS011;10682;50.874;3.656;2023-05-07T14:25:23;8.95;;;4.38;;
21046;SDS011;10682;50.874;3.656;2023-05-07T14:27:52;8.30;;;4.22;;
21046;SDS011;10682;50.874;3.656;2023-05-07T14:30:21;6.82;;;4.18;;
21046;SDS011;10682;50.874;3.656;2023-05-07T14:32:51;7.55;;;4.45;;
21046;SDS011;10682;50.874;3.656;2023-05-07T14:35:20;7.68;;;4.28;;
21046;SDS011;10682;50.874;3.656;2023-05-07T14:37:47;10.38;;;4.57;;
21046;SDS011;10682;50.874;3.656;2023-05-07T14:40:14;8.15;;;4.72;;
21046;SDS011;10682;50.874;3.656;2023-05-07T14:42:41;9.02;;;4.50;;
21046;SDS011;10682;50.874;3.656;2023-05-07T14:45:09;7.00;;;4.28;;
21046;SDS011;10682;50.874;3.656;2023-05-07T14:47:37;6.75;;;4.22;;
21046;SDS011;10682;50.874;3.656;2023-05-07T14:50:05;11.63;;;4.63;;
21046;SDS011;10682;50.874;3.656;2023-05-07T14:52:32;7.78;;;4.47;;
21046;SDS011;10682;50.874;3.656;2023-05-07T14:54:59;9.43;;;4.55;;
21046;SDS011;10682;50.874;3.656;2023-05-07T14:57:26;9.48;;;4.20;;
21046;SDS011;10682;50.874;3.656;2023-05-07T14:59:58;7.72;;;4.18;;
21046;SDS011;10682;50.874;3.656;2023-05-07T15:02:25;8.43;;;4.65;;
21046;SDS011;10682;50.874;3.656;2023-05-07T15:04:52;9.15;;;4.40;;